Time;durP1;ratioP1;P1;durP2;ratioP2;P2;SDS_P1;SDS_P2;PMS_P1;PMS_P2;Temp;Humidity;BMP_temperature;BMP_pressure;BME280_temperature;BME280_humidity;BME280_pressure;Samples;Min_cycle;Max_cycle;Signal;HPM_P1;HPM_P2
2021/10/13 00:01:03;;;;;;;25.10;13.53;;;8.30;99.90;;;;;;5074597;28;20447;-59
2021/10/13 00:03:30;;;;;;;24.17;12.83;;;8.30;99.90;;;;;;5078076;28;20457;-59
2021/10/13 00:05:57;;;;;;;20.80;12.57;;;8.20;99.90;;;;;;5078811;28;20503;-59
2021/10/13 00:08:24;;;;;;;26.57;12.50;;;8.20;99.90;;;;;;5077723;28;20885;-59
2021/10/13 00:10:51;;;;;;;19.53;11.60;;;8.20;99.90;;;;;;5095093;28;20461;-59
2021/10/13 00:13:19;;;;;;;25.67;13.40;;;8.30;99.90;;;;;;5096162;28;20450;-59
2021/10/13 00:15:47;;;;;;;23.90;12.77;;;8.40;99.90;;;;;;5094774;28;20499;-59
2021/10/13 00:18:14;;;;;;;23.43;13.07;;;8.40;99.90;;;;;;5082556;28;20475;-59
2021/10/13 00:20:41;;;;;;;22.83;12.93;;;8.40;99.90;;;;;;5094193;28;20452;-59
2021/10/13 00:23:10;;;;;;;23.57;13.83;;;8.30;99.90;;;;;;5093681;28;20519;-59
2021/10/13 00:25:37;;;;;;;26.03;13.80;;;8.30;99.90;;;;;;5080299;28;20450;-59
2021/10/13 00:28:04;;;;;;;23.63;13.97;;;8.30;99.90;;;;;;5094249;28;20490;-59
2021/10/13 00:30:31;;;;;;;19.77;11.87;;;8.20;99.90;;;;;;5090245;28;20449;-59
2021/10/13 00:33:00;;;;;;;18.10;10.57;;;8.30;99.90;;;;;;5106975;28;20502;-59
2021/10/13 00:35:27;;;;;;;23.50;12.60;;;8.40;99.90;;;;;;5094515;28;20893;-59
2021/10/13 00:37:54;;;;;;;25.77;13.27;;;8.40;99.90;;;;;;5092530;28;20515;-59
2021/10/13 00:40:21;;;;;;;22.33;12.87;;;8.30;99.90;;;;;;5093938;28;20438;-59
2021/10/13 00:42:48;;;;;;;25.90;13.57;;;8.20;99.90;;;;;;5094142;28;20495;-59
2021/10/13 00:45:15;;;;;;;21.43;11.83;;;8.30;99.90;;;;;;5095189;28;20446;-59
2021/10/13 00:47:42;;;;;;;21.50;12.43;;;8.30;99.90;;;;;;5093087;28;20601;-60
2021/10/13 00:50:12;;;;;;;19.50;11.80;;;8.30;99.90;;;;;;5087406;28;20458;-59
2021/10/13 00:52:43;;;;;;;23.07;12.03;;;8.30;99.90;;;;;;5073656;28;20454;-59
2021/10/13 00:55:17;;;;;;;23.97;12.20;;;8.20;99.90;;;;;;5078927;28;20542;-59
2021/10/13 00:57:45;;;;;;;25.00;12.50;;;8.10;99.90;;;;;;5090308;28;20989;-59
2021/10/13 01:00:14;;;;;;;23.60;12.13;;;8.00;99.90;;;;;;5087334;28;20449;-59
2021/10/13 01:02:52;;;;;;;17.70;11.07;;;8.10;99.90;;;;;;5077428;28;20520;-59
2021/10/13 01:05:35;;;;;;;22.20;11.17;;;8.30;99.90;;;;;;5080148;28;20939;-59
2021/10/13 01:08:13;;;;;;;17.87;9.80;;;8.40;99.90;;;;;;5073323;28;20903;-59
2021/10/13 01:10:50;;;;;;;19.37;11.30;;;8.50;99.90;;;;;;5079139;28;20942;-59
2021/10/13 01:13:25;;;;;;;17.80;9.50;;;8.50;99.90;;;;;;5090330;28;20522;-60
2021/10/13 01:16:00;;;;;;;19.33;10.47;;;8.40;99.90;;;;;;5084926;28;20446;-60
2021/10/13 01:18:33;;;;;;;19.50;10.33;;;8.30;99.90;;;;;;5078393;28;20465;-59
2021/10/13 01:21:08;;;;;;;16.93;10.57;;;8.30;99.90;;;;;;5113588;28;21002;-59
2021/10/13 01:23:55;;;;;;;18.77;9.10;;;8.30;99.90;;;;;;5093944;28;20453;-59
2021/10/13 01:26:30;;;;;;;17.70;9.17;;;8.20;99.90;;;;;;5081449;28;20485;-59
2021/10/13 01:29:03;;;;;;;14.10;8.07;;;8.20;99.90;;;;;;5073183;28;20592;-58
2021/10/13 01:31:38;;;;;;;9.60;6.53;;;8.40;99.90;;;;;;5090049;28;20487;-57
2021/10/13 01:34:10;;;;;;;10.77;6.43;;;8.30;99.90;;;;;;5092836;28;20858;-58
2021/10/13 01:36:41;;;;;;;10.03;5.53;;;8.20;99.90;;;;;;5093343;28;20457;-58
2021/10/13 01:39:09;;;;;;;9.60;5.10;;;8.20;99.90;;;;;;5091939;28;20439;-57
2021/10/13 01:41:39;;;;;;;4.80;3.50;;;8.10;99.90;;;;;;5072801;28;20508;-57
2021/10/13 01:44:11;;;;;;;5.27;3.43;;;8.10;99.90;;;;;;5072869;28;20458;-57
2021/10/13 01:46:39;;;;;;;3.80;2.77;;;8.10;99.90;;;;;;5088196;28;20541;-58
2021/10/13 01:49:07;;;;;;;2.40;1.87;;;8.10;99.90;;;;;;5094028;28;20453;-58
2021/10/13 01:51:36;;;;;;;1.83;1.40;;;8.00;99.90;;;;;;5092101;28;20449;-58
2021/10/13 01:54:04;;;;;;;2.70;1.30;;;8.00;99.90;;;;;;5090896;28;20455;-58
2021/10/13 01:56:32;;;;;;;3.93;1.50;;;8.00;99.90;;;;;;5105893;28;20448;-58
2021/10/13 01:59:03;;;;;;;1.83;1.20;;;7.90;99.90;;;;;;5073795;28;20496;-58
2021/10/13 02:01:33;;;;;;;1.83;1.40;;;8.00;99.90;;;;;;5072211;28;20503;-58
2021/10/13 02:04:04;;;;;;;2.10;1.50;;;8.00;99.90;;;;;;5072700;28;20526;-59
2021/10/13 02:06:33;;;;;;;1.33;1.23;;;8.00;99.90;;;;;;5075404;28;21069;-60
2021/10/13 02:09:01;;;;;;;1.37;1.27;;;8.00;99.90;;;;;;5081672;28;20507;-58
2021/10/13 02:11:30;;;;;;;2.17;1.33;;;8.00;99.90;;;;;;5090482;28;20889;-58
2021/10/13 02:14:02;;;;;;;2.60;1.50;;;7.80;99.90;;;;;;5089304;28;21012;-59
2021/10/13 02:16:32;;;;;;;3.10;1.60;;;7.70;99.90;;;;;;5092405;28;20960;-58
2021/10/13 02:19:01;;;;;;;1.90;1.20;;;7.60;99.90;;;;;;5092475;28;20483;-58
2021/10/13 02:21:31;;;;;;;1.97;1.33;;;7.80;99.90;;;;;;5090113;28;20514;-58
2021/10/13 02:23:59;;;;;;;1.80;1.40;;;7.60;99.90;;;;;;5092034;28;20860;-58
2021/10/13 02:26:31;;;;;;;1.30;1.20;;;7.60;99.90;;;;;;5092062;28;20486;-59
2021/10/13 02:29:05;;;;;;;2.23;1.17;;;7.60;99.90;;;;;;5092110;28;20446;-58
2021/10/13 02:31:34;;;;;;;1.20;1.10;;;7.70;99.90;;;;;;5094535;28;20518;-58
2021/10/13 02:34:01;;;;;;;4.03;1.30;;;7.80;99.90;;;;;;5112551;28;20450;-58
2021/10/13 02:36:28;;;;;;;2.20;0.90;;;7.60;99.90;;;;;;5099152;28;20481;-59
2021/10/13 02:38:55;;;;;;;1.63;0.83;;;7.60;99.90;;;;;;5080153;28;20452;-58
2021/10/13 02:41:22;;;;;;;1.10;0.80;;;7.70;99.90;;;;;;5091715;28;21012;-58
2021/10/13 02:43:49;;;;;;;1.67;0.80;;;7.80;99.90;;;;;;5104908;28;20505;-58
2021/10/13 02:46:24;;;;;;;4.03;1.20;;;7.80;99.90;;;;;;5111666;28;20445;-58
2021/10/13 02:49:00;;;;;;;0.90;0.80;;;7.90;99.90;;;;;;5084727;28;20498;-58
2021/10/13 02:51:36;;;;;;;1.73;0.90;;;7.60;99.90;;;;;;5090552;28;20685;-59
2021/10/13 02:54:09;;;;;;;0.80;0.80;;;7.70;99.90;;;;;;5091854;28;20503;-59
2021/10/13 02:56:41;;;;;;;1.23;0.90;;;7.70;99.90;;;;;;5092298;28;20981;-58
2021/10/13 02:59:12;;;;;;;1.00;0.90;;;7.70;99.90;;;;;;5071800;28;20442;-59
2021/10/13 03:01:40;;;;;;;1.20;0.83;;;7.80;99.90;;;;;;5084717;28;20461;-59
2021/10/13 03:04:14;;;;;;;1.10;1.00;;;7.80;99.90;;;;;;5092327;28;20872;-59
2021/10/13 03:06:46;;;;;;;1.10;0.83;;;7.80;99.90;;;;;;5090895;28;20496;-58
2021/10/13 03:09:14;;;;;;;1.00;0.90;;;7.80;99.90;;;;;;5090468;28;20441;-58
2021/10/13 03:11:43;;;;;;;0.90;0.90;;;7.80;99.90;;;;;;5078650;28;20448;-60
2021/10/13 03:14:11;;;;;;;1.17;1.00;;;7.90;99.90;;;;;;5073727;28;20455;-60
2021/10/13 03:16:40;;;;;;;1.30;1.00;;;7.80;99.90;;;;;;5092342;28;20521;-59
2021/10/13 03:19:11;;;;;;;1.00;0.90;;;7.90;99.90;;;;;;5086501;28;20454;-59
2021/10/13 03:21:40;;;;;;;0.70;0.70;;;7.90;99.90;;;;;;5097126;28;20454;-59
2021/10/13 03:24:08;;;;;;;1.10;0.73;;;8.00;99.90;;;;;;5091792;28;20467;-60
2021/10/13 03:26:35;;;;;;;1.83;1.13;;;8.00;99.90;;;;;;5091773;28;20505;-60
2021/10/13 03:29:03;;;;;;;1.60;0.93;;;8.00;99.90;;;;;;5091713;28;20549;-60
2021/10/13 03:31:31;;;;;;;1.30;0.90;;;8.00;99.90;;;;;;5091765;28;20817;-59
2021/10/13 03:33:58;;;;;;;1.57;0.80;;;8.00;99.90;;;;;;5091663;28;20452;-59
2021/10/13 03:36:26;;;;;;;4.37;0.80;;;8.00;99.90;;;;;;5091887;28;20529;-60
2021/10/13 03:38:53;;;;;;;1.50;0.87;;;7.90;99.90;;;;;;5081606;28;20454;-60
2021/10/13 03:41:20;;;;;;;1.03;0.90;;;7.90;99.90;;;;;;5086015;28;20457;-59
2021/10/13 03:43:49;;;;;;;1.87;1.10;;;8.00;99.90;;;;;;5112113;28;20452;-59
2021/10/13 03:46:21;;;;;;;4.23;2.00;;;8.10;99.90;;;;;;5111615;28;20495;-59
2021/10/13 03:48:51;;;;;;;2.03;1.57;;;8.10;99.90;;;;;;5111268;28;20527;-59
2021/10/13 03:51:18;;;;;;;2.67;1.70;;;8.10;99.90;;;;;;5111806;28;20449;-60
2021/10/13 03:53:46;;;;;;;2.30;1.23;;;8.00;99.90;;;;;;5111942;28;20472;-59
2021/10/13 03:56:14;;;;;;;1.03;0.90;;;8.00;99.90;;;;;;5100944;28;20449;-59
2021/10/13 03:58:42;;;;;;;1.10;1.00;;;8.00;99.90;;;;;;5075074;28;20512;-59
2021/10/13 04:01:09;;;;;;;1.00;0.90;;;8.00;99.90;;;;;;5080309;28;20456;-59
2021/10/13 04:03:36;;;;;;;2.30;1.23;;;7.90;99.90;;;;;;5095122;28;20441;-59
2021/10/13 04:06:04;;;;;;;1.40;1.10;;;7.90;99.90;;;;;;5089408;28;20548;-59
2021/10/13 04:08:31;;;;;;;1.80;1.30;;;8.00;99.90;;;;;;5078511;28;20569;-59
2021/10/13 04:10:59;;;;;;;3.00;1.33;;;8.00;99.90;;;;;;5077082;28;20457;-59
2021/10/13 04:13:26;;;;;;;1.30;1.20;;;7.90;99.90;;;;;;5093239;28;20800;-59
2021/10/13 04:15:54;;;;;;;1.20;1.10;;;8.00;99.90;;;;;;5094903;28;20457;-58
2021/10/13 04:18:21;;;;;;;1.03;0.97;;;8.00;99.90;;;;;;5075515;28;20494;-58
2021/10/13 04:20:48;;;;;;;1.20;1.00;;;8.00;99.90;;;;;;5075123;28;20461;-58
2021/10/13 04:23:15;;;;;;;3.83;1.20;;;7.80;99.90;;;;;;5087134;28;20458;-59
2021/10/13 04:25:42;;;;;;;1.50;1.27;;;7.70;99.90;;;;;;5094883;28;20445;-58
2021/10/13 04:28:10;;;;;;;1.30;1.20;;;7.90;99.90;;;;;;5094624;28;20492;-58
2021/10/13 04:30:39;;;;;;;1.83;1.30;;;7.90;99.90;;;;;;5083975;28;20464;-59
2021/10/13 04:33:06;;;;;;;1.40;1.30;;;8.00;99.90;;;;;;5094020;28;20533;-59
2021/10/13 04:35:33;;;;;;;1.30;1.20;;;8.00;99.90;;;;;;5089111;28;20442;-59
2021/10/13 04:38:04;;;;;;;2.40;1.20;;;8.00;99.90;;;;;;5088030;28;20544;-59
2021/10/13 04:40:35;;;;;;;1.80;1.70;;;7.90;99.90;;;;;;5073724;28;20447;-58
2021/10/13 04:43:02;;;;;;;1.77;1.20;;;7.70;99.90;;;;;;5079969;28;20446;-58
2021/10/13 04:45:31;;;;;;;1.67;1.30;;;7.80;99.90;;;;;;5095376;28;20453;-59
2021/10/13 04:47:58;;;;;;;1.63;1.43;;;7.80;99.90;;;;;;5114250;28;20886;-59
2021/10/13 04:50:25;;;;;;;2.17;1.97;;;7.70;99.90;;;;;;5095290;28;20503;-58
2021/10/13 04:52:52;;;;;;;1.60;1.50;;;7.70;99.90;;;;;;5092501;28;20444;-58
2021/10/13 04:55:19;;;;;;;1.83;1.70;;;7.70;99.90;;;;;;5073506;28;20460;-59
2021/10/13 04:57:46;;;;;;;1.77;1.67;;;7.80;99.90;;;;;;5073586;28;20463;-59
2021/10/13 05:00:13;;;;;;;2.10;1.80;;;7.90;99.90;;;;;;5073672;28;20603;-58
2021/10/13 05:02:42;;;;;;;2.17;2.00;;;7.90;99.90;;;;;;5094839;28;20454;-58
2021/10/13 05:05:09;;;;;;;2.73;2.13;;;7.90;99.90;;;;;;5093626;28;20446;-58
2021/10/13 05:07:37;;;;;;;1.97;1.87;;;7.90;99.90;;;;;;5092828;28;20481;-58
2021/10/13 05:10:04;;;;;;;2.10;2.00;;;7.90;99.90;;;;;;5093461;28;20449;-58
2021/10/13 05:12:32;;;;;;;2.73;2.27;;;7.90;99.90;;;;;;5077288;28;20457;-58
2021/10/13 05:14:59;;;;;;;1.97;1.77;;;8.00;99.90;;;;;;5075306;28;20960;-58
2021/10/13 05:17:26;;;;;;;2.30;1.70;;;7.90;99.90;;;;;;5093239;28;20523;-58
2021/10/13 05:19:54;;;;;;;2.50;2.10;;;8.00;99.90;;;;;;5092396;28;20446;-58
2021/10/13 05:22:21;;;;;;;3.63;2.50;;;8.00;99.90;;;;;;5093154;28;21005;-58
2021/10/13 05:24:48;;;;;;;2.40;2.20;;;8.00;99.90;;;;;;5096341;28;20460;-58
2021/10/13 05:27:15;;;;;;;2.10;1.73;;;7.80;99.90;;;;;;5101841;28;20462;-58
2021/10/13 05:29:42;;;;;;;1.90;1.80;;;7.70;99.90;;;;;;5092566;28;20473;-58
2021/10/13 05:32:09;;;;;;;1.93;1.80;;;7.80;99.90;;;;;;5093025;28;20495;-58
2021/10/13 05:34:36;;;;;;;4.90;2.90;;;7.60;99.90;;;;;;5093057;28;20457;-59
2021/10/13 05:37:05;;;;;;;7.13;5.40;;;7.60;99.90;;;;;;5093156;28;20519;-58
2021/10/13 05:39:32;;;;;;;6.20;5.60;;;7.70;99.90;;;;;;5089483;28;20453;-58
2021/10/13 05:41:59;;;;;;;4.67;4.23;;;7.70;99.90;;;;;;5113223;28;20479;-58
2021/10/13 05:44:26;;;;;;;24.23;21.83;;;7.70;99.90;;;;;;5105055;28;20446;-58
2021/10/13 05:46:53;;;;;;;7.50;5.70;;;7.90;99.90;;;;;;5091746;28;20527;-58
2021/10/13 05:49:20;;;;;;;12.57;6.37;;;7.80;99.90;;;;;;5091076;28;20485;-58
2021/10/13 05:51:47;;;;;;;7.70;5.20;;;7.80;99.90;;;;;;5084024;28;20461;-58
2021/10/13 05:54:16;;;;;;;11.00;7.57;;;7.80;99.90;;;;;;5092598;28;20456;-58
2021/10/13 05:56:43;;;;;;;8.60;6.00;;;7.70;99.90;;;;;;5095799;28;20453;-58
2021/10/13 05:59:10;;;;;;;11.00;6.60;;;7.80;99.90;;;;;;5096815;28;20449;-58
2021/10/13 06:01:37;;;;;;;13.00;7.53;;;7.90;99.90;;;;;;5091367;28;20514;-58
2021/10/13 06:04:04;;;;;;;10.10;6.07;;;8.00;99.90;;;;;;5092786;28;20511;-59
2021/10/13 06:06:31;;;;;;;10.03;6.10;;;8.00;99.90;;;;;;5088404;28;20498;-59
2021/10/13 06:08:58;;;;;;;9.00;6.47;;;8.00;99.90;;;;;;5107805;28;20478;-59
2021/10/13 06:11:26;;;;;;;7.63;5.50;;;8.00;99.90;;;;;;5102024;28;20451;-58
2021/10/13 06:13:53;;;;;;;4.03;3.53;;;8.00;99.90;;;;;;5079935;28;20454;-58
2021/10/13 06:16:20;;;;;;;5.13;3.47;;;8.00;99.90;;;;;;5082437;28;20439;-59
2021/10/13 06:18:50;;;;;;;4.80;3.70;;;8.00;99.90;;;;;;5102569;28;20468;-58
2021/10/13 06:21:17;;;;;;;4.40;3.23;;;8.10;99.90;;;;;;5093508;28;20451;-58
2021/10/13 06:23:44;;;;;;;5.80;3.70;;;8.10;99.90;;;;;;5092065;28;20453;-59
2021/10/13 06:26:11;;;;;;;3.67;3.37;;;8.10;99.90;;;;;;5090918;28;20515;-59
2021/10/13 06:28:40;;;;;;;4.33;3.60;;;8.10;99.90;;;;;;5092123;28;20478;-59
2021/10/13 06:31:07;;;;;;;5.33;3.60;;;8.10;99.90;;;;;;5090536;28;20446;-58
2021/10/13 06:33:36;;;;;;;6.67;3.63;;;8.10;99.90;;;;;;5071871;28;21569;-58
2021/10/13 06:36:04;;;;;;;5.20;4.07;;;8.10;99.90;;;;;;5071959;28;20455;-58
2021/10/13 06:38:31;;;;;;;8.30;6.27;;;8.30;99.90;;;;;;5071657;28;20462;-58
2021/10/13 06:40:58;;;;;;;5.60;4.70;;;8.50;99.90;;;;;;5071485;28;20446;-58
2021/10/13 06:43:26;;;;;;;6.00;3.07;;;8.80;99.90;;;;;;5071804;28;20449;-59
2021/10/13 06:45:55;;;;;;;8.80;6.63;;;9.10;99.90;;;;;;5071700;28;20545;-58
2021/10/13 06:48:25;;;;;;;8.32;7.43;;;9.00;99.90;;;;;;5081319;28;20448;-59
2021/10/13 06:50:52;;;;;;;7.10;3.93;;;9.00;99.90;;;;;;5091175;28;20218;-59
2021/10/13 06:53:19;;;;;;;4.50;3.00;;;8.90;99.90;;;;;;5091423;28;20453;-59
2021/10/13 06:55:46;;;;;;;3.67;3.30;;;8.90;99.90;;;;;;5091621;28;20453;-59
2021/10/13 06:58:14;;;;;;;4.63;3.50;;;8.90;99.90;;;;;;5091470;28;20468;-59
2021/10/13 07:00:41;;;;;;;9.50;4.60;;;9.00;99.90;;;;;;5077733;28;20461;-59
2021/10/13 07:03:09;;;;;;;6.00;4.33;;;8.90;99.90;;;;;;5083465;28;20446;-59
2021/10/13 07:05:37;;;;;;;4.03;3.10;;;9.00;99.90;;;;;;5090992;28;20457;-59
2021/10/13 07:08:05;;;;;;;5.07;3.90;;;9.20;99.90;;;;;;5091304;28;20482;-59
2021/10/13 07:10:33;;;;;;;4.07;3.67;;;9.30;99.90;;;;;;5091274;28;20473;-59
2021/10/13 07:13:01;;;;;;;4.60;3.50;;;9.20;99.90;;;;;;5091317;28;20450;-59
2021/10/13 07:15:28;;;;;;;5.63;3.70;;;9.20;99.90;;;;;;5091210;28;20514;-59
2021/10/13 07:17:55;;;;;;;4.40;3.17;;;9.30;99.90;;;;;;5091367;28;21215;-60
2021/10/13 07:20:24;;;;;;;4.73;3.63;;;9.30;99.90;;;;;;5090843;28;21046;-59
2021/10/13 07:22:51;;;;;;;4.40;3.80;;;9.40;99.90;;;;;;5084611;28;20538;-59
2021/10/13 07:25:22;;;;;;;6.60;4.57;;;9.40;99.90;;;;;;5091607;28;20454;-59
2021/10/13 07:27:50;;;;;;;6.33;4.43;;;9.40;99.90;;;;;;5091446;28;20470;-59
2021/10/13 07:30:18;;;;;;;7.63;4.63;;;9.30;99.90;;;;;;5091065;28;20449;-59
2021/10/13 07:32:46;;;;;;;5.70;4.43;;;9.50;99.90;;;;;;5095245;28;20446;-59
2021/10/13 07:35:13;;;;;;;6.07;4.70;;;9.70;99.90;;;;;;5095295;28;20788;-59
2021/10/13 07:37:41;;;;;;;4.00;3.53;;;9.90;99.90;;;;;;5094646;28;20477;-59
2021/10/13 07:40:10;;;;;;;5.03;3.40;;;9.90;99.90;;;;;;5095296;28;20494;-59
2021/10/13 07:42:37;;;;;;;6.73;4.50;;;10.20;99.90;;;;;;5094973;28;20441;-59
2021/10/13 07:45:04;;;;;;;4.20;3.80;;;10.40;99.90;;;;;;5095160;28;20442;-59
2021/10/13 07:47:31;;;;;;;3.93;3.00;;;10.70;99.90;;;;;;5094918;28;21049;-59
2021/10/13 07:49:58;;;;;;;3.90;3.20;;;10.80;99.90;;;;;;5074591;28;20485;-59
2021/10/13 07:52:25;;;;;;;4.10;3.70;;;10.70;99.90;;;;;;5083130;28;20797;-59
2021/10/13 07:54:54;;;;;;;3.40;3.10;;;10.70;99.90;;;;;;5094849;28;20931;-59
2021/10/13 07:57:21;;;;;;;3.47;3.13;;;10.80;99.90;;;;;;5094748;28;20514;-60
2021/10/13 07:59:50;;;;;;;4.10;3.60;;;10.90;99.90;;;;;;5094692;28;20450;-59
2021/10/13 08:02:17;;;;;;;3.13;2.93;;;11.00;99.90;;;;;;5094485;28;20450;-59
2021/10/13 08:04:44;;;;;;;3.63;3.30;;;11.10;99.90;;;;;;5075381;28;20455;-59
2021/10/13 08:07:11;;;;;;;6.03;3.67;;;11.30;99.90;;;;;;5076558;28;20462;-59
2021/10/13 08:09:38;;;;;;;4.33;3.30;;;11.30;99.90;;;;;;5090308;28;20481;-60
2021/10/13 08:12:07;;;;;;;3.27;2.60;;;11.30;99.90;;;;;;5081701;28;20866;-59
2021/10/13 08:14:34;;;;;;;2.97;2.73;;;11.30;99.90;;;;;;5080003;28;21024;-59
2021/10/13 08:17:01;;;;;;;2.90;2.10;;;11.50;99.90;;;;;;5098055;28;20871;-60
2021/10/13 08:19:29;;;;;;;2.40;2.10;;;11.50;99.90;;;;;;5101387;28;20445;-60
2021/10/13 08:21:56;;;;;;;2.83;2.00;;;11.50;99.90;;;;;;5114585;28;21209;-59
2021/10/13 08:24:23;;;;;;;2.30;1.80;;;11.80;99.90;;;;;;5097585;28;20446;-59
2021/10/13 08:26:50;;;;;;;2.10;1.90;;;12.00;99.90;;;;;;5093973;28;20466;-60
2021/10/13 08:29:19;;;;;;;2.30;2.10;;;12.10;99.90;;;;;;5094384;28;20558;-59
2021/10/13 08:31:46;;;;;;;5.03;2.70;;;12.10;99.90;;;;;;5093960;28;20992;-60
2021/10/13 08:34:13;;;;;;;3.30;3.00;;;12.20;99.90;;;;;;5094101;28;20878;-59
2021/10/13 08:36:40;;;;;;;2.87;2.67;;;12.00;99.90;;;;;;5088874;28;20451;-60
2021/10/13 08:39:07;;;;;;;3.27;2.53;;;11.90;99.90;;;;;;5085740;28;20503;-60
2021/10/13 08:41:34;;;;;;;6.03;2.50;;;11.90;99.90;;;;;;5093457;28;20482;-60
2021/10/13 08:44:01;;;;;;;3.00;2.70;;;12.70;99.90;;;;;;5085706;28;20601;-60
2021/10/13 08:46:29;;;;;;;3.77;2.27;;;13.10;99.90;;;;;;5093707;28;20494;-60
2021/10/13 08:48:57;;;;;;;4.53;3.40;;;12.90;99.90;;;;;;5114270;28;20553;-60
2021/10/13 08:51:24;;;;;;;4.37;3.10;;;12.80;99.90;;;;;;5090103;28;20451;-60
2021/10/13 08:53:51;;;;;;;4.73;3.00;;;12.80;99.90;;;;;;5097038;28;20494;-60
2021/10/13 08:56:18;;;;;;;3.60;3.13;;;12.30;99.90;;;;;;5093571;28;20454;-59
2021/10/13 08:58:45;;;;;;;3.60;3.20;;;11.60;99.90;;;;;;5088443;28;20486;-59
2021/10/13 09:01:14;;;;;;;5.50;3.40;;;11.40;99.90;;;;;;5092894;28;20450;-59
2021/10/13 09:03:44;;;;;;;4.53;3.10;;;11.30;99.90;;;;;;5093518;28;20481;-59
2021/10/13 09:06:19;;;;;;;3.77;3.00;;;11.80;99.90;;;;;;5086734;28;20477;-59
2021/10/13 09:09:08;;;;;;;7.20;2.87;;;12.00;99.90;;;;;;5092881;28;20488;-59
2021/10/13 09:11:41;;;;;;;6.10;4.33;;;12.30;99.90;;;;;;5088635;28;20450;-59
2021/10/13 09:14:13;;;;;;;5.17;3.70;;;12.30;99.90;;;;;;5092553;28;20521;-59
2021/10/13 09:16:49;;;;;;;4.17;3.17;;;12.00;99.90;;;;;;5084118;28;20996;-60
2021/10/13 09:19:18;;;;;;;4.30;3.20;;;12.00;99.90;;;;;;5082171;28;20934;-59
2021/10/13 09:21:51;;;;;;;3.47;2.93;;;12.00;99.90;;;;;;5093197;28;20450;-59
2021/10/13 09:24:19;;;;;;;5.20;4.40;;;11.80;99.90;;;;;;5091744;28;20462;-59
2021/10/13 09:26:46;;;;;;;4.90;4.10;;;11.50;99.90;;;;;;5078551;28;20447;-60
2021/10/13 09:29:13;;;;;;;6.23;4.23;;;11.10;99.90;;;;;;5086618;28;21022;-59
2021/10/13 09:31:40;;;;;;;7.47;4.40;;;10.90;99.90;;;;;;5072238;28;20450;-59
2021/10/13 09:34:10;;;;;;;7.80;4.10;;;11.00;99.90;;;;;;5085883;28;20458;-59
2021/10/13 09:36:40;;;;;;;6.67;4.27;;;11.10;99.90;;;;;;5087825;28;20442;-59
2021/10/13 09:39:10;;;;;;;5.50;4.17;;;11.10;99.90;;;;;;5092289;28;20438;-59
2021/10/13 09:42:05;;;;;;;5.43;3.70;;;11.30;99.90;;;;;;5071719;28;20443;-59
2021/10/13 09:44:35;;;;;;;5.30;3.80;;;11.20;99.90;;;;;;5072173;28;20520;-59
2021/10/13 09:47:06;;;;;;;7.70;4.60;;;11.40;99.90;;;;;;5089562;28;20466;-60
2021/10/13 09:49:36;;;;;;;5.07;4.03;;;11.60;99.90;;;;;;5081284;28;21035;-59
2021/10/13 09:52:11;;;;;;;4.93;3.80;;;11.50;99.90;;;;;;5091629;28;20885;-59
2021/10/13 09:54:39;;;;;;;6.17;3.87;;;11.40;99.90;;;;;;5072439;28;20446;-59
2021/10/13 09:57:17;;;;;;;6.70;4.10;;;11.30;99.90;;;;;;5087701;28;20465;-59
2021/10/13 10:00:01;;;;;;;5.30;3.90;;;11.10;99.90;;;;;;5092625;28;20495;-59
2021/10/13 10:02:31;;;;;;;4.57;3.53;;;11.10;99.90;;;;;;5091887;28;20452;-59
2021/10/13 10:05:02;;;;;;;5.70;3.90;;;11.10;99.90;;;;;;5089565;28;20450;-59
2021/10/13 10:07:31;;;;;;;7.63;4.30;;;11.10;99.90;;;;;;5083642;28;20488;-60
2021/10/13 10:10:10;;;;;;;6.60;4.07;;;10.80;99.90;;;;;;5091908;28;20474;-59
2021/10/13 10:13:00;;;;;;;6.10;4.10;;;10.60;99.90;;;;;;5089623;28;20518;-60
2021/10/13 10:15:33;;;;;;;7.20;4.47;;;10.50;99.90;;;;;;5071824;28;20504;-59
2021/10/13 10:18:01;;;;;;;7.13;4.20;;;10.50;99.90;;;;;;5071988;28;20467;-59
2021/10/13 10:20:36;;;;;;;5.07;3.83;;;10.40;99.90;;;;;;5075867;28;20447;-59
2021/10/13 10:23:32;;;;;;;7.30;4.07;;;10.50;99.90;;;;;;5071710;28;20965;-59
2021/10/13 10:26:02;;;;;;;5.10;3.53;;;10.60;99.90;;;;;;5087654;28;20503;-60
2021/10/13 10:28:58;;;;;;;4.57;3.20;;;10.80;99.90;;;;;;5091471;28;20889;-59
2021/10/13 10:31:45;;;;;;;3.97;2.97;;;11.20;99.90;;;;;;5091720;28;20541;-59
2021/10/13 10:34:15;;;;;;;5.73;3.20;;;12.10;99.90;;;;;;5080390;28;20508;-59
2021/10/13 10:37:11;;;;;;;4.30;3.30;;;12.80;99.90;;;;;;5074297;28;20453;-60
2021/10/13 10:40:04;;;;;;;4.70;3.60;;;13.60;99.90;;;;;;5074534;28;20443;-60
2021/10/13 10:42:52;;;;;;;3.60;3.13;;;13.90;99.90;;;;;;5077191;28;20478;-59
2021/10/13 10:45:21;;;;;;;4.93;3.23;;;14.00;99.90;;;;;;5072296;28;20865;-60
2021/10/13 10:47:49;;;;;;;4.50;3.50;;;14.30;99.90;;;;;;5081624;28;20530;-59
2021/10/13 10:50:32;;;;;;;3.73;3.17;;;14.50;99.90;;;;;;5089511;28;20473;-60
2021/10/13 10:53:27;;;;;;;4.27;3.10;;;14.70;99.90;;;;;;5091568;28;20450;-60
2021/10/13 10:55:57;;;;;;;3.67;2.97;;;14.80;99.90;;;;;;5090222;28;20462;-60
2021/10/13 10:58:26;;;;;;;3.53;3.10;;;14.90;99.90;;;;;;5091413;28;20462;-60
2021/10/13 11:01:06;;;;;;;4.10;3.03;;;14.80;99.90;;;;;;5091365;28;20952;-60
2021/10/13 11:03:36;;;;;;;4.17;2.90;;;14.90;99.90;;;;;;5090369;28;20454;-59
2021/10/13 11:06:18;;;;;;;3.53;3.20;;;15.00;99.90;;;;;;5073610;28;20512;-60
2021/10/13 11:08:54;;;;;;;4.13;3.60;;;14.90;99.90;;;;;;5075291;28;20466;-60
2021/10/13 11:11:23;;;;;;;3.77;3.43;;;14.60;99.90;;;;;;5076090;28;20454;-60
2021/10/13 11:14:21;;;;;;;4.80;3.40;;;14.30;99.90;;;;;;5091826;28;20450;-59
2021/10/13 11:16:51;;;;;;;4.63;2.50;;;13.50;99.90;;;;;;5094364;28;20947;-60
2021/10/13 11:19:21;;;;;;;3.13;2.50;;;12.50;99.90;;;;;;5093792;28;21040;-60
2021/10/13 11:21:56;;;;;;;3.93;3.03;;;11.90;99.90;;;;;;5092870;28;20453;-60
2021/10/13 11:24:23;;;;;;;4.20;2.43;;;11.20;99.90;;;;;;5089697;28;20507;-59
2021/10/13 11:26:52;;;;;;;7.53;3.70;;;10.90;99.90;;;;;;5094700;28;20833;-59
2021/10/13 11:29:22;;;;;;;4.07;3.00;;;10.70;99.90;;;;;;5095334;28;20994;-60
2021/10/13 11:31:49;;;;;;;3.97;2.90;;;11.00;99.90;;;;;;5094654;28;20510;-59
2021/10/13 11:34:19;;;;;;;3.30;2.53;;;11.30;99.90;;;;;;5095285;28;20445;-59
2021/10/13 11:36:53;;;;;;;2.77;2.50;;;11.70;99.90;;;;;;5095174;28;20567;-59
2021/10/13 11:39:22;;;;;;;3.00;2.63;;;12.20;99.90;;;;;;5095186;28;20442;-59
2021/10/13 11:41:49;;;;;;;3.80;3.10;;;12.50;99.90;;;;;;5094593;28;20498;-59
2021/10/13 11:44:20;;;;;;;3.00;2.70;;;12.50;99.90;;;;;;5094721;28;20510;-59
2021/10/13 11:47:04;;;;;;;3.50;2.20;;;12.60;99.90;;;;;;5094926;28;20903;-60
2021/10/13 11:49:32;;;;;;;2.67;2.30;;;12.80;99.90;;;;;;5089839;28;20520;-60
2021/10/13 11:52:10;;;;;;;2.63;2.43;;;13.10;99.90;;;;;;5091442;28;20458;-61
2021/10/13 11:54:38;;;;;;;2.20;2.00;;;13.00;99.90;;;;;;5095092;28;20503;-61
2021/10/13 11:57:05;;;;;;;4.00;2.60;;;13.00;99.90;;;;;;5086998;28;20478;-60
2021/10/13 11:59:34;;;;;;;2.73;2.30;;;12.90;99.90;;;;;;5110634;28;20518;-59
2021/10/13 12:02:16;;;;;;;3.73;2.50;;;12.50;99.90;;;;;;5111098;28;20518;-60
2021/10/13 12:04:48;;;;;;;5.27;2.70;;;12.40;99.90;;;;;;5094524;28;20454;-60
2021/10/13 12:07:17;;;;;;;5.30;2.90;;;12.70;99.90;;;;;;5094375;28;20470;-60
2021/10/13 12:09:47;;;;;;;5.47;3.10;;;12.50;99.90;;;;;;5094547;28;20477;-60
2021/10/13 12:12:15;;;;;;;3.83;2.57;;;12.50;99.90;;;;;;5093952;28;21011;-59
2021/10/13 12:14:43;;;;;;;2.70;2.20;;;12.80;99.90;;;;;;5094695;28;20495;-58
2021/10/13 12:17:27;;;;;;;2.53;2.33;;;12.70;99.90;;;;;;5094328;28;20561;-60
2021/10/13 12:19:55;;;;;;;4.60;2.60;;;12.70;99.90;;;;;;5094492;28;20437;-59
2021/10/13 12:22:22;;;;;;;3.87;2.47;;;12.60;99.90;;;;;;5094087;28;20446;-60
2021/10/13 12:24:50;;;;;;;3.60;2.40;;;12.80;99.90;;;;;;5094273;28;20464;-58
2021/10/13 12:27:30;;;;;;;3.80;2.50;;;12.70;99.90;;;;;;5094248;28;20462;-58
2021/10/13 12:29:59;;;;;;;3.33;2.30;;;12.30;99.90;;;;;;5093756;28;21070;-59
2021/10/13 12:32:28;;;;;;;4.20;3.10;;;12.10;99.90;;;;;;5093801;28;20457;-58
2021/10/13 12:35:11;;;;;;;3.80;2.77;;;11.70;99.90;;;;;;5094221;28;20902;-58
2021/10/13 12:37:47;;;;;;;3.53;3.20;;;11.70;99.90;;;;;;5094022;28;20885;-59
2021/10/13 12:40:15;;;;;;;2.60;2.40;;;11.90;99.90;;;;;;5093853;28;20536;-57
2021/10/13 12:42:42;;;;;;;2.67;2.47;;;12.10;99.90;;;;;;5093889;28;20450;-58
2021/10/13 12:45:10;;;;;;;2.70;2.27;;;12.10;99.90;;;;;;5093961;28;20454;-58
2021/10/13 12:47:37;;;;;;;3.43;2.20;;;12.00;99.90;;;;;;5093662;28;20552;-59
2021/10/13 12:50:13;;;;;;;3.57;2.47;;;12.00;99.90;;;;;;5093892;28;20482;-58
2021/10/13 12:52:41;;;;;;;2.90;2.17;;;11.80;99.90;;;;;;5093607;28;20452;-57
2021/10/13 12:55:08;;;;;;;3.50;2.80;;;11.80;99.90;;;;;;5073600;28;20508;-58
2021/10/13 12:57:35;;;;;;;3.10;2.00;;;11.90;99.90;;;;;;5082141;28;20471;-58
2021/10/13 13:00:05;;;;;;;2.47;2.20;;;11.90;99.90;;;;;;5100785;28;20441;-58
2021/10/13 13:02:33;;;;;;;3.53;2.13;;;12.00;99.90;;;;;;5108926;28;20450;-58
2021/10/13 13:05:00;;;;;;;2.37;2.17;;;12.00;99.90;;;;;;5093749;28;20510;-58